Time;durP1;ratioP1;P1;durP2;ratioP2;P2;SDS_P1;SDS_P2;PMS_P1;PMS_P2;Temp;Humidity;BMP_temperature;BMP_pressure;BME280_temperature;BME280_humidity;BME280_pressure;Samples;Min_cycle;Max_cycle;Signal;HPM_P1;HPM_P2
2022/09/10 00:01:09;;;;;;;37.70;18.85;;;;;;;15.73;100.00;98730.73;2197356;79;20389;-58
2022/09/10 00:04:10;;;;;;;35.03;17.75;;;;;;;15.74;100.00;98731.55;2199540;80;21081;-59
2022/09/10 00:07:11;;;;;;;38.20;18.95;;;;;;;15.86;100.00;98732.35;2199757;79;20998;-58
2022/09/10 00:10:11;;;;;;;35.92;18.32;;;;;;;15.76;100.00;98723.03;2195727;80;21033;-58
2022/09/10 00:13:12;;;;;;;39.42;18.80;;;;;;;15.78;100.00;98715.79;2200124;80;20965;-58
2022/09/10 00:16:12;;;;;;;38.17;19.32;;;;;;;15.76;100.00;98722.53;2199238;80;21101;-58
2022/09/10 00:19:13;;;;;;;39.73;20.75;;;;;;;15.76;100.00;98721.70;2202776;80;20998;-58
2022/09/10 00:22:14;;;;;;;39.00;19.07;;;;;;;15.75;100.00;98715.56;2203179;80;21017;-58
2022/09/10 00:25:15;;;;;;;35.67;18.60;;;;;;;15.79;100.00;98721.94;2208077;80;21027;-58
2022/09/10 00:28:16;;;;;;;37.28;18.92;;;;;;;15.85;100.00;98723.59;2201514;80;21481;-59
2022/09/10 00:31:17;;;;;;;39.25;18.20;;;;;;;15.87;100.00;98724.29;2203146;80;20978;-56
2022/09/10 00:34:17;;;;;;;39.20;18.70;;;;;;;15.83;100.00;98720.72;2201313;80;20966;-56
2022/09/10 00:37:18;;;;;;;41.98;19.95;;;;;;;15.91;100.00;98712.48;2203822;80;20955;-57
2022/09/10 00:40:18;;;;;;;40.67;20.30;;;;;;;15.92;100.00;98711.52;2201890;80;21060;-58
2022/09/10 00:43:19;;;;;;;37.40;19.45;;;;;;;15.96;100.00;98719.19;2201985;78;21072;-58
2022/09/10 00:46:20;;;;;;;37.15;18.65;;;;;;;15.92;100.00;98722.10;2193381;80;21558;-58
2022/09/10 00:49:21;;;;;;;36.55;18.52;;;;;;;15.93;100.00;98717.17;2197176;80;21025;-58
2022/09/10 00:52:21;;;;;;;36.93;18.05;;;;;;;15.91;100.00;98708.52;2204669;80;21017;-58
2022/09/10 00:55:22;;;;;;;39.13;19.05;;;;;;;15.94;100.00;98702.96;2201157;80;21014;-58
2022/09/10 00:58:22;;;;;;;37.53;18.95;;;;;;;15.99;100.00;98704.38;2201144;80;21074;-58
2022/09/10 01:01:23;;;;;;;41.37;20.43;;;;;;;16.00;100.00;98704.74;2202131;80;21537;-58
2022/09/10 01:04:25;;;;;;;40.48;20.23;;;;;;;15.99;100.00;98705.70;2204035;79;20983;-58
2022/09/10 01:07:28;;;;;;;41.65;19.60;;;;;;;15.94;100.00;98703.45;2201226;80;20974;-59
2022/09/10 01:10:28;;;;;;;;;;;;;;;15.98;100.00;98714.13;2179982;80;21036;-58
2022/09/10 01:13:28;;;;;;;36.68;18.45;;;;;;;16.06;100.00;98710.36;2203389;80;20108;-59
2022/09/10 01:16:29;;;;;;;36.70;19.12;;;;;;;16.00;100.00;98700.77;2201729;79;21511;-56
2022/09/10 01:19:29;;;;;;;39.85;17.73;;;;;;;16.03;100.00;98694.75;2200135;80;20989;-57
2022/09/10 01:22:31;;;;;;;39.85;19.55;;;;;;;16.13;100.00;98695.27;2198237;80;21383;-56
2022/09/10 01:25:32;;;;;;;35.28;18.77;;;;;;;16.11;100.00;98688.79;2205268;80;21547;-57
2022/09/10 01:28:32;;;;;;;38.53;19.67;;;;;;;16.10;100.00;98688.42;2199787;80;21021;-57
2022/09/10 01:31:33;;;;;;;41.92;19.65;;;;;;;16.16;100.00;98684.41;2202054;80;21025;-57
2022/09/10 01:34:33;;;;;;;39.88;19.50;;;;;;;16.10;100.00;98684.00;2205039;80;21058;-56
2022/09/10 01:37:34;;;;;;;38.20;19.48;;;;;;;16.06;100.00;98681.25;2199977;80;21002;-56
2022/09/10 01:40:34;;;;;;;38.42;18.98;;;;;;;16.23;100.00;98673.19;2184940;80;21548;-56
2022/09/10 01:43:35;;;;;;;39.18;19.65;;;;;;;16.09;100.00;98674.37;2205494;80;21134;-57
2022/09/10 01:46:35;;;;;;;38.20;18.98;;;;;;;16.16;100.00;98680.45;2205386;80;21006;-57
2022/09/10 01:49:36;;;;;;;39.45;19.55;;;;;;;16.21;100.00;98676.94;2208766;80;21038;-57
2022/09/10 01:52:37;;;;;;;38.98;19.37;;;;;;;16.15;100.00;98673.47;2202002;80;20998;-57
2022/09/10 01:55:37;;;;;;;39.90;19.95;;;;;;;16.15;100.00;98671.69;2203190;80;21547;-56
2022/09/10 01:58:39;;;;;;;41.68;20.17;;;;;;;15.99;100.00;98662.91;2203438;80;21529;-58
2022/09/10 02:01:39;;;;;;;40.83;21.02;;;;;;;15.99;100.00;98666.02;2201313;80;21001;-58
2022/09/10 02:04:40;;;;;;;39.27;20.02;;;;;;;15.92;100.00;98660.45;2204767;80;21105;-56
2022/09/10 02:07:41;;;;;;;36.73;19.55;;;;;;;15.97;100.00;98658.22;2205732;79;21071;-56
2022/09/10 02:10:41;;;;;;;40.78;20.35;;;;;;;16.00;100.00;98659.28;2199758;80;21572;-56
2022/09/10 02:13:42;;;;;;;39.42;19.48;;;;;;;15.94;100.00;98650.56;2206094;80;21017;-58
2022/09/10 02:16:42;;;;;;;39.42;19.48;;;;;;;15.82;100.00;98639.23;2199478;80;20986;-58
2022/09/10 02:19:43;;;;;;;37.15;18.42;;;;;;;15.83;100.00;98647.53;2206527;80;21130;-57
2022/09/10 02:22:44;;;;;;;47.88;20.72;;;;;;;15.83;100.00;98650.64;2201959;80;21010;-58
2022/09/10 02:25:44;;;;;;;40.60;19.73;;;;;;;15.85;100.00;98653.51;2197871;80;21588;-59
2022/09/10 02:28:48;;;;;;;38.78;19.32;;;;;;;15.95;100.00;98641.66;2195082;80;21006;-59
2022/09/10 02:31:47;;;;;;;;;;;;;;;16.01;100.00;98642.94;2176099;80;21025;-56
2022/09/10 02:34:47;;;;;;;39.53;20.23;;;;;;;16.13;100.00;98640.53;2203501;80;20108;-56
2022/09/10 02:37:49;;;;;;;38.35;18.87;;;;;;;16.06;100.00;98635.43;2200291;80;21030;-56
2022/09/10 02:40:50;;;;;;;37.58;18.73;;;;;;;16.09;100.00;98638.66;2199955;80;21025;-56
2022/09/10 02:43:50;;;;;;;36.55;18.35;;;;;;;16.09;100.00;98655.00;2191525;80;21508;-57
2022/09/10 02:46:50;;;;;;;41.00;19.95;;;;;;;15.96;100.00;98673.77;2184923;80;20963;-58
2022/09/10 02:49:51;;;;;;;42.25;19.50;;;;;;;15.75;100.00;98676.39;2193283;80;21062;-58
2022/09/10 02:52:52;;;;;;;38.35;20.95;;;;;;;15.64;100.00;98675.96;2196479;80;21041;-59
2022/09/10 02:55:53;;;;;;;42.00;21.23;;;;;;;15.70;100.00;98664.89;2203116;80;21009;-59
2022/09/10 02:58:53;;;;;;;41.83;21.17;;;;;;;15.75;100.00;98663.17;2192510;80;21041;-59
2022/09/10 03:01:54;;;;;;;43.35;23.07;;;;;;;15.76;100.00;98667.00;2200630;80;21555;-58
2022/09/10 03:04:55;;;;;;;46.77;24.67;;;;;;;15.85;100.00;98661.94;2204247;80;21061;-58
2022/09/10 03:07:56;;;;;;;42.30;23.27;;;;;;;15.91;100.00;98651.66;2197365;80;21001;-58
2022/09/10 03:10:58;;;;;;;44.25;22.65;;;;;;;15.99;100.00;98651.02;2202777;80;21002;-58
2022/09/10 03:13:58;;;;;;;;;;;;;;;16.03;100.00;98655.08;2205478;80;21029;-58
2022/09/10 03:16:59;;;;;;;42.20;23.77;;;;;;;16.10;100.00;98654.89;2195843;80;20108;-59
2022/09/10 03:19:59;;;;;;;42.95;22.45;;;;;;;16.08;100.00;98643.59;2202032;79;20958;-58
2022/09/10 03:23:00;;;;;;;43.60;22.73;;;;;;;16.05;100.00;98641.71;2201147;80;21069;-58
2022/09/10 03:26:00;;;;;;;39.08;21.17;;;;;;;16.02;100.00;98645.92;2207788;80;21100;-58
2022/09/10 03:29:01;;;;;;;40.52;21.35;;;;;;;16.09;100.00;98655.00;2182496;80;21045;-58
2022/09/10 03:32:02;;;;;;;43.33;20.97;;;;;;;16.08;100.00;98648.88;2185089;80;20987;-58
2022/09/10 03:35:03;;;;;;;38.65;19.92;;;;;;;16.14;100.00;98649.33;2184860;81;21469;-58
2022/09/10 03:38:04;;;;;;;41.02;21.15;;;;;;;16.22;100.00;98641.08;2191946;80;21149;-58
2022/09/10 03:41:05;;;;;;;40.87;21.80;;;;;;;16.23;100.00;98638.79;2208108;80;21052;-58
2022/09/10 03:44:05;;;;;;;40.12;21.77;;;;;;;16.30;100.00;98634.27;2208419;80;21030;-56
2022/09/10 03:47:06;;;;;;;39.88;21.27;;;;;;;16.21;100.00;98632.77;2209812;80;21003;-57
2022/09/10 03:50:07;;;;;;;42.23;20.85;;;;;;;16.24;100.00;98631.18;2202871;80;21543;-57
2022/09/10 03:53:08;;;;;;;41.18;20.02;;;;;;;16.22;100.00;98639.75;2205912;80;21025;-58
2022/09/10 03:56:08;;;;;;;41.90;19.90;;;;;;;16.21;100.00;98634.09;2192909;80;21038;-57
2022/09/10 03:59:08;;;;;;;39.23;20.17;;;;;;;16.26;100.00;98627.08;2202090;80;21066;-56
2022/09/10 04:02:09;;;;;;;36.03;19.70;;;;;;;16.36;100.00;98628.43;2207735;80;20986;-56
2022/09/10 04:05:09;;;;;;;39.95;21.07;;;;;;;16.39;100.00;98616.25;2200958;80;21492;-57
2022/09/10 04:08:10;;;;;;;37.55;19.32;;;;;;;16.23;100.00;98622.05;2186965;80;21607;-56
2022/09/10 04:11:12;;;;;;;39.08;20.57;;;;;;;16.15;100.00;98614.80;2200997;80;21101;-57
2022/09/10 04:14:14;;;;;;;38.65;19.73;;;;;;;16.22;100.00;98611.11;2208285;80;21029;-57
2022/09/10 04:17:16;;;;;;;39.27;18.77;;;;;;;16.18;100.00;98602.62;2208928;80;21669;-56
2022/09/10 04:20:18;;;;;;;40.28;20.12;;;;;;;16.05;100.00;98606.00;2204742;80;21053;-57
2022/09/10 04:23:19;;;;;;;39.27;19.60;;;;;;;15.98;100.00;98612.30;2202920;80;21583;-56
2022/09/10 04:26:19;;;;;;;38.80;19.35;;;;;;;15.98;100.00;98615.44;2199320;80;21022;-57
2022/09/10 04:29:20;;;;;;;40.30;20.52;;;;;;;15.96;100.00;98602.34;2204022;80;21006;-57
2022/09/10 04:32:21;;;;;;;40.30;19.20;;;;;;;15.89;100.00;98603.85;2202898;80;21041;-57
2022/09/10 04:35:21;;;;;;;44.10;20.08;;;;;;;15.91;100.00;98599.25;2200007;80;21085;-57
2022/09/10 04:38:21;;;;;;;41.65;20.55;;;;;;;15.89;100.00;98592.78;2197334;80;21477;-57
2022/09/10 04:41:22;;;;;;;39.27;19.30;;;;;;;15.87;100.00;98592.05;2203321;80;20982;-56
2022/09/10 04:44:23;;;;;;;35.60;17.37;;;;;;;15.88;100.00;98596.88;2199584;80;21006;-57
2022/09/10 04:47:24;;;;;;;39.18;18.35;;;;;;;15.84;100.00;98596.79;2201285;80;21037;-59
2022/09/10 04:50:24;;;;;;;40.00;18.48;;;;;;;15.82;100.00;98602.21;2206351;80;21476;-58
2022/09/10 04:53:26;;;;;;;34.58;17.77;;;;;;;15.87;100.00;98602.63;2203579;80;21465;-58
2022/09/10 04:56:27;;;;;;;39.53;19.95;;;;;;;15.99;100.00;98609.16;2204423;80;21068;-59
2022/09/10 04:59:28;;;;;;;39.67;19.57;;;;;;;16.03;100.00;98614.07;2200116;80;20974;-58
2022/09/10 05:02:28;;;;;;;38.73;18.87;;;;;;;16.06;100.00;98616.91;2202066;80;21010;-58
2022/09/10 05:05:29;;;;;;;33.02;16.02;;;;;;;16.16;100.00;98605.05;2204648;80;21051;-58
2022/09/10 05:08:30;;;;;;;29.72;13.72;;;;;;;16.15;100.00;98597.60;2207926;79;21136;-59
2022/09/10 05:11:30;;;;;;;30.97;14.07;;;;;;;15.97;100.00;98589.95;2200141;80;21029;-58
2022/09/10 05:14:32;;;;;;;27.87;12.35;;;;;;;15.90;100.00;98594.45;2201348;80;21094;-58
2022/09/10 05:17:33;;;;;;;25.35;11.05;;;;;;;15.92;100.00;98597.80;2197829;80;21523;-58
2022/09/10 05:20:34;;;;;;;29.87;12.23;;;;;;;16.00;100.00;98585.71;2201888;80;21097;-57
2022/09/10 05:23:35;;;;;;;29.07;13.17;;;;;;;16.05;100.00;98588.31;2199807;80;20967;-57
2022/09/10 05:26:35;;;;;;;27.02;11.63;;;;;;;16.05;100.00;98588.80;2202774;80;21536;-58
2022/09/10 05:29:36;;;;;;;24.70;11.18;;;;;;;16.00;100.00;98585.22;2203586;79;21522;-57
2022/09/10 05:32:37;;;;;;;24.72;11.38;;;;;;;15.90;100.00;98581.70;2200795;80;21051;-56
2022/09/10 05:35:37;;;;;;;27.45;12.55;;;;;;;15.93;100.00;98590.22;2200584;80;21098;-57
2022/09/10 05:38:38;;;;;;;25.45;11.88;;;;;;;15.92;100.00;98595.65;2198742;80;21043;-58
2022/09/10 05:41:38;;;;;;;24.55;10.40;;;;;;;16.00;100.00;98591.83;2202453;80;21048;-56
2022/09/10 05:44:40;;;;;;;24.30;10.13;;;;;;;16.05;100.00;98596.24;2186436;80;21533;-56
2022/09/10 05:47:42;;;;;;;24.30;10.45;;;;;;;15.97;100.00;98596.56;2190872;80;21116;-57
2022/09/10 05:50:44;;;;;;;22.70;9.95;;;;;;;15.99;100.00;98593.28;2207142;80;21014;-57
2022/09/10 05:53:45;;;;;;;24.10;9.10;;;;;;;15.97;100.00;98596.56;2206257;80;21005;-58
2022/09/10 05:56:45;;;;;;;20.97;8.40;;;;;;;15.99;100.00;98600.76;2201976;80;21481;-57
2022/09/10 05:59:45;;;;;;;20.43;7.83;;;;;;;16.06;100.00;98599.71;2207688;80;20989;-57
2022/09/10 06:02:46;;;;;;;20.68;7.53;;;;;;;16.11;100.00;98598.34;2196744;80;21017;-57
2022/09/10 06:05:49;;;;;;;18.35;6.90;;;;;;;16.06;100.00;98595.75;2201094;80;21033;-57
2022/09/10 06:08:49;;;;;;;;;;;;;;;15.84;100.00;98593.65;2182509;80;21528;-57
2022/09/10 06:11:50;;;;;;;21.95;9.15;;;;;;;15.66;100.00;98592.55;2199696;80;20096;-59
2022/09/10 06:14:51;;;;;;;21.80;8.20;;;;;;;15.61;100.00;98600.89;2202232;80;21030;-57
2022/09/10 06:17:54;;;;;;;22.00;9.08;;;;;;;15.58;100.00;98608.59;2204846;80;21535;-58
2022/09/10 06:20:54;;;;;;;;;;;;;;;15.64;100.00;98612.52;2210152;79;20996;-58
2022/09/10 06:23:54;;;;;;;25.12;10.28;;;;;;;15.73;100.00;98618.36;2244744;79;20085;-58
2022/09/10 06:26:56;;;;;;;21.10;8.25;;;;;;;15.79;100.00;98624.95;2243886;79;20980;-58
2022/09/10 06:29:56;;;;;;;20.95;7.60;;;;;;;15.91;100.00;98623.05;2208519;80;21000;-58
2022/09/10 06:32:57;;;;;;;18.55;6.28;;;;;;;15.91;100.00;98630.98;2208364;80;21455;-58
2022/09/10 06:35:57;;;;;;;16.50;5.45;;;;;;;15.96;100.00;98619.54;2204928;80;21096;-58
2022/09/10 06:38:58;;;;;;;15.48;5.10;;;;;;;16.00;100.00;98620.09;2208788;80;21153;-58
2022/09/10 06:41:59;;;;;;;14.45;5.08;;;;;;;16.07;100.00;98623.39;2205667;80;21002;-58
2022/09/10 06:45:00;;;;;;;15.08;4.85;;;;;;;16.12;100.00;98621.69;2194441;80;20993;-57
2022/09/10 06:48:00;;;;;;;15.38;5.05;;;;;;;16.13;100.00;98615.90;2204709;79;21622;-56
2022/09/10 06:51:01;;;;;;;14.10;4.67;;;;;;;15.99;100.00;98604.72;2200681;80;21073;-56
2022/09/10 06:54:02;;;;;;;14.83;4.90;;;;;;;15.79;100.00;98606.91;2184928;80;21591;-57
2022/09/10 06:57:03;;;;;;;21.07;8.18;;;;;;;15.74;100.00;98605.96;2197365;80;20994;-58
2022/09/10 07:00:04;;;;;;;23.67;8.83;;;;;;;15.78;100.00;98611.84;2244297;78;20996;-58
2022/09/10 07:03:05;;;;;;;21.70;8.65;;;;;;;15.84;100.00;98612.16;2186510;80;20969;-58
2022/09/10 07:06:06;;;;;;;20.37;7.90;;;;;;;15.97;100.00;98600.03;2203013;79;21515;-58
2022/09/10 07:09:07;;;;;;;20.05;6.90;;;;;;;15.97;100.00;98602.68;2191239;80;21026;-57
2022/09/10 07:12:08;;;;;;;16.75;5.60;;;;;;;16.04;100.00;98597.70;2197084;80;20993;-58
2022/09/10 07:15:08;;;;;;;20.60;7.97;;;;;;;16.04;100.00;98600.34;2204499;80;21042;-58
2022/09/10 07:18:10;;;;;;;16.35;5.50;;;;;;;15.89;100.00;98594.10;2208996;80;21508;-57
2022/09/10 07:21:10;;;;;;;16.63;5.17;;;;;;;15.84;100.00;98590.17;2193686;80;21100;-58
2022/09/10 07:24:11;;;;;;;18.37;5.53;;;;;;;15.80;100.00;98589.59;2202860;80;20982;-57
2022/09/10 07:27:11;;;;;;;17.98;5.75;;;;;;;15.78;100.00;98583.58;2208212;80;20997;-58
2022/09/10 07:30:12;;;;;;;17.27;5.90;;;;;;;15.80;100.00;98580.83;2208460;80;21465;-58
2022/09/10 07:33:12;;;;;;;16.00;5.45;;;;;;;15.80;100.00;98584.30;2213563;79;21558;-57
2022/09/10 07:36:13;;;;;;;16.52;5.55;;;;;;;15.78;100.00;98581.43;2240517;79;21056;-58
2022/09/10 07:39:13;;;;;;;18.23;6.25;;;;;;;15.79;100.00;98583.97;2198726;80;21051;-58
2022/09/10 07:42:14;;;;;;;17.23;6.22;;;;;;;15.88;100.00;98587.62;2235332;78;21012;-58
2022/09/10 07:45:14;;;;;;;17.60;5.85;;;;;;;15.92;100.00;98583.75;2244486;78;21056;-58
2022/09/10 07:48:15;;;;;;;17.57;6.45;;;;;;;15.91;100.00;98584.70;2242800;79;21620;-58
2022/09/10 07:51:18;;;;;;;18.23;6.25;;;;;;;15.89;100.00;98581.38;2245949;78;21068;-58
2022/09/10 07:54:18;;;;;;;19.27;7.12;;;;;;;15.92;100.00;98579.78;2200620;78;21536;-58
2022/09/10 07:57:19;;;;;;;19.00;6.80;;;;;;;15.97;100.00;98582.02;2244146;78;20997;-58
2022/09/10 08:00:19;;;;;;;19.32;6.50;;;;;;;15.90;100.00;98588.31;2240802;79;21047;-58
2022/09/10 08:03:20;;;;;;;17.87;6.30;;;;;;;15.90;100.00;98586.99;2239908;79;21020;-58
2022/09/10 08:06:22;;;;;;;17.95;5.80;;;;;;;16.04;100.00;98589.27;2243407;78;21016;-58
2022/09/10 08:09:22;;;;;;;15.98;5.62;;;;;;;16.08;100.00;98597.30;2241276;78;21041;-57
2022/09/10 08:12:24;;;;;;;17.85;5.72;;;;;;;16.13;100.00;98599.53;2242387;79;21016;-57
2022/09/10 08:15:24;;;;;;;16.45;5.40;;;;;;;16.09;100.00;98599.44;2242001;78;21030;-56
2022/09/10 08:18:25;;;;;;;17.87;5.85;;;;;;;16.03;100.00;98603.48;2244131;78;21006;-56
2022/09/10 08:21:25;;;;;;;15.43;5.33;;;;;;;16.09;100.00;98606.91;2243468;78;20977;-56
2022/09/10 08:24:27;;;;;;;15.10;5.05;;;;;;;16.31;100.00;98605.03;2243108;78;20994;-58
2022/09/10 08:27:27;;;;;;;14.47;4.87;;;;;;;16.29;100.00;98610.92;2239062;78;21004;-56
2022/09/10 08:30:30;;;;;;;15.60;5.28;;;;;;;16.33;100.00;98603.06;2236449;78;21469;-57
2022/09/10 08:33:30;;;;;;;15.43;4.85;;;;;;;16.35;100.00;98605.11;2216003;79;21016;-56
2022/09/10 08:36:31;;;;;;;12.50;4.25;;;;;;;16.45;100.00;98609.94;2200628;80;21492;-58
2022/09/10 08:39:31;;;;;;;11.22;3.87;;;;;;;16.47;100.00;98605.83;2248106;79;21507;-56
2022/09/10 08:42:32;;;;;;;12.55;3.98;;;;;;;16.49;100.00;98608.33;2192729;80;21100;-56
2022/09/10 08:45:32;;;;;;;11.15;3.80;;;;;;;16.53;100.00;98599.97;2249667;79;21021;-57
2022/09/10 08:48:34;;;;;;;8.55;3.20;;;;;;;16.59;100.00;98597.27;2242076;79;21024;-57
2022/09/10 08:51:35;;;;;;;8.98;3.47;;;;;;;16.64;100.00;98601.67;2234152;78;21005;-57
2022/09/10 08:54:36;;;;;;;8.83;3.33;;;;;;;16.61;100.00;98594.83;2237107;79;21005;-56
2022/09/10 08:57:37;;;;;;;7.53;3.10;;;;;;;16.50;100.00;98587.52;2240951;79;21064;-57
2022/09/10 09:00:38;;;;;;;7.15;3.02;;;;;;;16.36;100.00;98597.50;2241916;78;20938;-58
2022/09/10 09:03:38;;;;;;;6.30;2.60;;;;;;;16.28;100.00;98592.06;2241281;78;21605;-58
2022/09/10 09:06:39;;;;;;;7.00;2.50;;;;;;;16.24;100.00;98599.42;2238570;79;20964;-58
2022/09/10 09:09:39;;;;;;;8.15;2.55;;;;;;;16.17;100.00;98600.11;2243255;78;20966;-58
2022/09/10 09:12:40;;;;;;;5.03;2.30;;;;;;;16.20;100.00;98605.95;2242936;78;20958;-58
2022/09/10 09:15:43;;;;;;;7.60;2.53;;;;;;;16.25;100.00;98604.25;2241386;78;21028;-58
2022/09/10 09:18:43;;;;;;;;;;;;;;;16.12;100.00;98601.84;2247194;78;21004;-58
2022/09/10 09:21:44;;;;;;;10.55;3.50;;;;;;;16.18;100.00;98603.95;2246713;78;20487;-58
2022/09/10 09:24:44;;;;;;;10.15;3.50;;;;;;;16.21;100.00;98601.02;2206938;80;21015;-58
2022/09/10 09:27:45;;;;;;;10.75;3.72;;;;;;;16.14;100.00;98601.70;2242180;78;21012;-58
2022/09/10 09:30:48;;;;;;;9.98;3.52;;;;;;;16.06;100.00;98597.92;2239877;78;21036;-59
2022/09/10 09:33:48;;;;;;;;;;;;;;;16.05;100.00;98594.92;2193400;80;21497;-58
2022/09/10 09:36:48;;;;;;;14.15;4.00;;;;;;;16.21;100.00;98597.05;2205990;80;20097;-57
2022/09/10 09:39:49;;;;;;;9.88;3.40;;;;;;;16.25;100.00;98596.31;2204344;80;21002;-57
2022/09/10 09:42:49;;;;;;;7.45;3.00;;;;;;;16.38;100.00;98582.83;2209025;80;21489;-57
2022/09/10 09:45:52;;;;;;;9.83;2.95;;;;;;;16.60;100.00;98591.83;2202772;80;21297;-57
2022/09/10 09:48:53;;;;;;;;;;;;;;;16.65;100.00;98589.26;2162193;80;21081;-57
2022/09/10 09:51:53;;;;;;;8.95;3.17;;;;;;;16.75;100.00;98584.34;2231497;78;20083;-57
2022/09/10 09:54:54;;;;;;;7.92;3.17;;;;;;;16.92;100.00;98580.66;2201142;80;20992;-57
2022/09/10 09:57:54;;;;;;;10.10;3.47;;;;;;;17.02;100.00;98579.33;2243001;78;21000;-57
2022/09/10 10:00:55;;;;;;;7.15;3.02;;;;;;;17.01;100.00;98582.48;2234554;78;21531;-57
2022/09/10 10:03:57;;;;;;;8.45;3.20;;;;;;;16.92;100.00;98586.81;2243516;78;21021;-57
2022/09/10 10:06:58;;;;;;;;;;;;;;;16.82;100.00;98578.47;2241800;79;21461;-57
2022/09/10 10:09:59;;;;;;;8.98;3.27;;;;;;;16.77;100.00;98580.22;2243519;78;20174;-57
2022/09/10 10:13:00;;;;;;;10.48;3.30;;;;;;;16.74;100.00;98586.62;2245632;78;20997;-57
2022/09/10 10:16:01;;;;;;;11.55;3.42;;;;;;;16.64;100.00;98581.81;2240054;79;21025;-56
2022/09/10 10:19:01;;;;;;;9.70;3.60;;;;;;;16.53;100.00;98580.61;2244124;79;20994;-57
2022/09/10 10:22:02;;;;;;;8.40;3.05;;;;;;;16.42;100.00;98577.59;2233004;79;21096;-57
2022/09/10 10:25:02;;;;;;;8.95;2.90;;;;;;;16.47;100.00;98575.87;2244063;78;21056;-56
2022/09/10 10:28:03;;;;;;;8.55;2.85;;;;;;;16.46;100.00;98569.73;2237371;79;21065;-57
2022/09/10 10:31:04;;;;;;;8.93;3.30;;;;;;;16.58;100.00;98571.28;2241661;78;21053;-57
2022/09/10 10:34:04;;;;;;;7.80;2.95;;;;;;;16.70;100.00;98563.22;2240644;78;20978;-57
2022/09/10 10:37:05;;;;;;;6.87;2.90;;;;;;;16.74;100.00;98561.97;2243514;79;20984;-56
2022/09/10 10:40:05;;;;;;;8.78;3.33;;;;;;;16.76;100.00;98565.30;2239779;78;21041;-57
2022/09/10 10:43:06;;;;;;;9.35;3.33;;;;;;;16.80;100.00;98570.17;2243200;79;20969;-56
2022/09/10 10:46:06;;;;;;;12.03;3.80;;;;;;;16.90;100.00;98566.73;2242969;78;21576;-56
2022/09/10 10:49:06;;;;;;;9.63;3.37;;;;;;;16.96;100.00;98566.98;2243177;78;21562;-56
2022/09/10 10:52:07;;;;;;;7.90;3.10;;;;;;;17.05;100.00;98569.77;2241533;79;21009;-58
2022/09/10 10:55:07;;;;;;;8.53;3.40;;;;;;;17.13;100.00;98567.27;2240896;78;21048;-58
2022/09/10 10:58:08;;;;;;;10.85;3.10;;;;;;;17.21;100.00;98568.72;2238995;78;20987;-56
2022/09/10 11:01:09;;;;;;;8.78;3.10;;;;;;;17.26;100.00;98574.41;2243548;79;20996;-56
2022/09/10 11:04:09;;;;;;;6.30;2.83;;;;;;;17.30;100.00;98569.18;2233385;78;20986;-57
2022/09/10 11:07:11;;;;;;;19.90;10.65;;;;;;;17.31;100.00;98570.86;2238805;78;20962;-57
2022/09/10 11:10:12;;;;;;;;;;;;;;;17.31;100.00;98571.33;2244026;78;21145;-58
2022/09/10 11:13:12;;;;;;;12.82;4.55;;;;;;;17.35;100.00;98568.74;2240283;79;20190;-58
2022/09/10 11:16:13;;;;;;;6.15;2.72;;;;;;;17.33;100.00;98566.73;2243950;78;20977;-58
2022/09/10 11:19:14;;;;;;;9.57;3.50;;;;;;;17.36;100.00;98570.92;2238520;79;21081;-58
2022/09/10 11:22:14;;;;;;;7.47;3.00;;;;;;;17.43;100.00;98577.33;2240483;78;20982;-58
2022/09/10 11:25:15;;;;;;;15.90;4.80;;;;;;;17.46;100.00;98575.70;2242493;78;21044;-57
2022/09/10 11:28:16;;;;;;;30.85;10.05;;;;;;;17.46;100.00;98575.70;2242336;78;21452;-58
2022/09/10 11:31:17;;;;;;;18.85;4.97;;;;;;;17.54;100.00;98566.55;2243197;78;20966;-58
2022/09/10 11:34:19;;;;;;;16.37;4.58;;;;;;;17.59;100.00;98565.61;2238607;79;21000;-58
2022/09/10 11:37:19;;;;;;;13.30;3.45;;;;;;;17.66;100.00;98564.55;2243722;78;21021;-58
2022/09/10 11:40:21;;;;;;;12.23;3.75;;;;;;;17.79;100.00;98554.44;2240235;78;21531;-58
2022/09/10 11:43:22;;;;;;;10.65;3.70;;;;;;;18.02;100.00;98552.77;2244024;78;20958;-58
2022/09/10 11:46:24;;;;;;;10.82;3.90;;;;;;;18.14;100.00;98550.73;2241310;78;21017;-58
2022/09/10 11:49:26;;;;;;;10.43;3.52;;;;;;;18.42;100.00;98555.53;2238574;79;21014;-58
2022/09/10 11:52:26;;;;;;;10.35;3.70;;;;;;;18.60;100.00;98548.88;2238090;79;21034;-57
2022/09/10 11:55:27;;;;;;;11.83;3.77;;;;;;;18.74;100.00;98541.39;2242487;78;20993;-58
2022/09/10 11:58:29;;;;;;;12.30;4.08;;;;;;;18.87;100.00;98547.17;2239490;78;20993;-58
2022/09/10 12:01:29;;;;;;;10.90;3.42;;;;;;;18.90;100.00;98548.19;2203473;79;20982;-58
2022/09/10 12:04:30;;;;;;;13.38;3.92;;;;;;;18.95;100.00;98548.57;2241160;79;21304;-58
2022/09/10 12:07:30;;;;;;;17.32;5.28;;;;;;;19.11;100.00;98543.05;2242915;79;20983;-58
2022/09/10 12:10:31;;;;;;;11.15;4.00;;;;;;;19.17;100.00;98540.59;2239774;78;21579;-58
2022/09/10 12:13:32;;;;;;;14.63;4.85;;;;;;;19.27;100.00;98539.16;2243293;78;21079;-58
2022/09/10 12:16:33;;;;;;;10.40;3.60;;;;;;;19.45;100.00;98536.94;2241980;78;20973;-58
2022/09/10 12:19:36;;;;;;;14.83;3.87;;;;;;;19.63;100.00;98535.05;2234939;78;21016;-58
2022/09/10 12:22:36;;;;;;;11.70;4.37;;;;;;;19.83;100.00;98526.86;2241398;78;21029;-58
2022/09/10 12:25:37;;;;;;;7.37;3.20;;;;;;;19.96;100.00;98522.42;2241259;78;21597;-58
2022/09/10 12:28:37;;;;;;;7.50;3.02;;;;;;;20.22;100.00;98517.81;2240758;78;21485;-58
2022/09/10 12:31:38;;;;;;;8.35;2.85;;;;;;;20.15;100.00;98511.98;2238930;78;21013;-57
2022/09/10 12:34:38;;;;;;;7.17;2.90;;;;;;;20.06;100.00;98509.30;2237984;78;21035;-56
2022/09/10 12:37:39;;;;;;;8.05;3.10;;;;;;;20.15;100.00;98497.34;2233714;78;20981;-58
2022/09/10 12:40:39;;;;;;;11.73;3.45;;;;;;;20.46;100.00;98500.23;2241490;78;21051;-57
2022/09/10 12:43:40;;;;;;;9.88;3.35;;;;;;;20.49;100.00;98495.91;2241950;78;21654;-57
2022/09/10 12:46:41;;;;;;;8.83;3.30;;;;;;;20.45;100.00;98491.90;2245830;78;21087;-57
2022/09/10 12:49:41;;;;;;;9.83;3.15;;;;;;;20.67;100.00;98489.61;2234449;79;20998;-57
2022/09/10 12:52:41;;;;;;;8.20;3.30;;;;;;;20.66;100.00;98496.75;2243439;78;21032;-57
2022/09/10 12:55:42;;;;;;;10.03;3.40;;;;;;;20.67;100.00;98495.76;2244303;78;21138;-57
2022/09/10 12:58:42;;;;;;;7.90;3.30;;;;;;;20.80;100.00;98489.93;2240460;78;20978;-56
2022/09/10 13:01:45;;;;;;;8.30;3.30;;;;;;;21.05;100.00;98495.27;2245685;78;21013;-56
2022/09/10 13:04:46;;;;;;;10.18;3.30;;;;;;;21.08;100.00;98489.08;2238141;79;20989;-56
2022/09/10 13:07:48;;;;;;;9.58;3.65;;;;;;;20.93;100.00;98493.42;2238088;78;21036;-58
2022/09/10 13:10:49;;;;;;;7.85;3.12;;;;;;;21.02;100.00;98491.09;2231174;79;21093;-58
2022/09/10 13:13:49;;;;;;;8.23;3.03;;;;;;;20.94;100.00;98487.92;2245439;78;21024;-59
2022/09/10 13:16:50;;;;;;;9.18;3.20;;;;;;;21.13;100.00;98483.74;2241152;78;21028;-59
2022/09/10 13:19:51;;;;;;;8.83;3.52;;;;;;;21.44;100.00;98475.83;2220186;78;21488;-58
2022/09/10 13:22:51;;;;;;;8.98;3.33;;;;;;;22.08;100.00;98466.39;2244858;78;21040;-58
2022/09/10 13:25:52;;;;;;;6.60;3.10;;;;;;;22.71;100.00;98455.59;2239696;79;21021;-59
2022/09/10 13:28:53;;;;;;;7.27;3.00;;;;;;;23.18;100.00;98451.81;2239965;77;21035;-58
2022/09/10 13:31:54;;;;;;;7.28;3.30;;;;;;;23.82;100.00;98446.38;2235677;78;21018;-58
2022/09/10 13:34:54;;;;;;;7.40;3.40;;;;;;;24.15;100.00;98440.59;2240031;78;21545;-58
2022/09/10 13:37:55;;;;;;;6.60;3.10;;;;;;;24.60;100.00;98432.89;2240598;78;20992;-58
2022/09/10 13:40:56;;;;;;;5.57;2.60;;;;;;;24.15;100.00;98421.84;2234039;78;20965;-58
2022/09/10 13:43:56;;;;;;;6.47;2.90;;;;;;;24.37;100.00;98421.83;2240442;79;21001;-58
2022/09/10 13:46:56;;;;;;;6.47;2.80;;;;;;;24.34;100.00;98412.84;2237110;79;20966;-58
2022/09/10 13:49:58;;;;;;;5.27;3.07;;;;;;;24.22;100.00;98419.20;2246494;78;21468;-59
2022/09/10 13:52:58;;;;;;;8.45;3.20;;;;;;;23.83;100.00;98419.09;2245109;78;21046;-58